Time;durP1;ratioP1;P1;durP2;ratioP2;P2;SDS_P1;SDS_P2;PMS_P1;PMS_P2;Temp;Humidity;BMP_temperature;BMP_pressure;BME280_temperature;BME280_humidity;BME280_pressure;Samples;Min_cycle;Max_cycle;Signal;HPM_P1;HPM_P2
2021/04/17 00:02:40;;;;;;;19.83;13.82;;;;;;;29.96;55.90;101146.97;5061237;28;43673;-29
2021/04/17 00:05:23;;;;;;;21.75;14.90;;;;;;;30.01;56.26;101152.59;5098120;27;43635;-28
2021/04/17 00:08:06;;;;;;;16.13;13.00;;;;;;;30.11;55.93;101157.56;5095602;27;43709;-28
2021/04/17 00:10:53;;;;;;;26.15;18.48;;;;;;;30.08;58.66;101153.41;5102135;27;43839;-28
2021/04/17 00:13:35;;;;;;;27.27;22.02;;;;;;;30.14;59.11;101157.16;5093695;27;1497463;-26
2021/04/17 00:17:07;;;;;;;28.73;22.98;;;;;;;30.21;59.15;101163.41;5065536;27;44189;-28
2021/04/17 00:19:53;;;;;;;34.30;22.17;;;;;;;30.16;58.99;101150.47;5101342;27;44478;-26
2021/04/17 00:23:07;;;;;;;37.38;24.67;;;;;;;30.31;59.41;101163.81;5102918;27;44458;-27
2021/04/17 00:25:52;;;;;;;34.42;22.60;;;;;;;30.31;59.72;101171.09;5058327;28;43531;-28
2021/04/17 00:28:35;;;;;;;33.88;26.77;;;;;;;30.35;60.02;101175.06;5062616;27;43615;-28
2021/04/17 00:31:18;;;;;;;37.58;24.25;;;;;;;30.50;59.10;101181.91;5064420;28;44407;-27
2021/04/17 00:34:01;;;;;;;27.83;24.90;;;;;;;30.62;59.43;101187.53;5101177;27;44440;-27
2021/04/17 00:36:48;;;;;;;28.98;24.30;;;;;;;30.69;58.85;101190.22;5103244;27;43618;-27
2021/04/17 00:39:33;;;;;;;30.58;23.13;;;;;;;30.73;58.37;101192.28;5093376;27;1494754;-27
2021/04/17 00:42:19;;;;;;;27.50;24.40;;;;;;;30.71;58.49;101190.84;5102651;27;44358;-27
2021/04/17 00:45:10;;;;;;;24.98;21.13;;;;;;;30.76;57.81;101199.16;5102927;27;44326;-27
2021/04/17 00:47:53;;;;;;;34.10;23.10;;;;;;;30.81;58.40;101201.25;5097155;27;44840;-28
2021/04/17 00:51:08;;;;;;;39.05;25.45;;;;;;;30.90;58.51;101200.81;5063483;28;43610;-27
2021/04/17 00:53:52;;;;;;;27.23;23.40;;;;;;;30.91;58.56;101202.47;5097247;27;44435;-27
2021/04/17 00:56:38;;;;;;;29.73;23.15;;;;;;;30.93;58.89;101200.41;5094390;27;44357;-28
2021/04/17 00:59:21;;;;;;;32.03;24.73;;;;;;;30.95;58.52;101208.28;5102004;27;43691;-29
2021/04/17 01:02:10;;;;;;;27.92;23.80;;;;;;;31.01;58.73;101202.03;5123013;27;43532;-27
2021/04/17 01:04:55;;;;;;;27.67;24.17;;;;;;;30.99;58.94;101198.72;5053878;28;43036;-28
2021/04/17 01:07:47;;;;;;;28.40;23.33;;;;;;;31.05;58.17;101194.31;5090298;27;42918;-28
2021/04/17 01:10:35;;;;;;;35.92;23.67;;;;;;;31.01;58.54;101188.50;5050263;27;2189455;-28
2021/04/17 01:13:24;;;;;;;24.00;19.48;;;;;;;31.02;58.42;101192.88;5046630;28;44287;-27
2021/04/17 01:16:06;;;;;;;35.85;25.38;;;;;;;31.09;58.04;101188.25;5056221;28;44386;-27
2021/04/17 01:18:48;;;;;;;29.88;24.92;;;;;;;31.15;57.99;101187.41;5093814;27;1499746;-27
2021/04/17 01:21:34;;;;;;;27.23;24.30;;;;;;;31.21;58.08;101190.28;5107745;27;44423;-27
2021/04/17 01:24:27;;;;;;;28.98;24.90;;;;;;;31.23;58.46;101190.88;5092603;27;1513835;-28
2021/04/17 01:26:57;;;;;;;24.08;20.05;;;;;;;31.16;58.29;101189.03;5118383;27;70207;-28
2021/04/17 01:30:29;;;;;;;31.30;26.00;;;;;;;31.26;57.62;101182.31;5106781;27;43833;-27
2021/04/17 01:33:13;;;;;;;43.05;29.05;;;;;;;31.30;58.39;101189.81;5053428;27;43628;-27
2021/04/17 01:35:58;;;;;;;29.33;24.55;;;;;;;31.32;57.95;101193.16;5056337;28;44781;-28
2021/04/17 01:39:14;;;;;;;36.65;29.15;;;;;;;31.26;58.22;101171.50;5097712;27;43518;-28
2021/04/17 01:42:06;;;;;;;34.60;28.75;;;;;;;31.39;58.08;101182.31;5057148;28;43619;-28
2021/04/17 01:45:28;;;;;;;25.80;21.58;;;;;;;31.29;57.58;101168.38;5106706;27;43623;-28
2021/04/17 01:48:14;;;;;;;22.35;19.65;;;;;;;31.38;57.76;101178.75;5111328;27;43592;-28
2021/04/17 01:51:00;;;;;;;29.10;23.33;;;;;;;31.49;57.26;101185.38;5076846;27;43996;-27
2021/04/17 01:53:48;;;;;;;33.13;23.98;;;;;;;31.55;56.65;101186.38;5127933;27;42976;-28
2021/04/17 01:56:31;;;;;;;22.10;19.75;;;;;;;31.50;57.05;101178.91;5083849;27;44202;-29
2021/04/17 01:59:19;;;;;;;25.73;21.60;;;;;;;31.54;56.60;101173.91;5099181;27;44391;-27
2021/04/17 02:02:05;;;;;;;26.13;20.65;;;;;;;31.55;57.26;101170.94;5121433;27;43607;-28
2021/04/17 02:04:36;;;;;;;25.35;20.85;;;;;;;31.57;56.61;101168.84;5098774;27;70271;-28
2021/04/17 02:07:19;;;;;;;29.25;22.23;;;;;;;31.60;56.64;101175.72;5074881;27;43644;-28
2021/04/17 02:10:04;;;;;;;21.02;18.05;;;;;;;31.65;56.53;101175.06;5045682;28;43392;-27
2021/04/17 02:12:34;;;;;;;23.55;17.95;;;;;;;31.67;57.12;101179.22;5029169;27;70061;-28
2021/04/17 02:15:19;;;;;;;25.23;17.23;;;;;;;31.66;56.65;101176.72;5106423;27;44448;-27
2021/04/17 02:18:41;;;;;;;18.92;17.05;;;;;;;31.67;56.59;101179.22;5098255;27;44473;-27
2021/04/17 02:21:16;;;;;;;18.63;16.65;;;;;;;31.78;56.51;101188.53;5074735;27;70264;-27
2021/04/17 02:24:04;;;;;;;17.92;16.13;;;;;;;31.79;56.48;101192.94;5040195;28;44294;-27
2021/04/17 02:26:49;;;;;;;20.05;17.45;;;;;;;31.85;55.92;101191.22;5099352;27;43890;-28
2021/04/17 02:29:33;;;;;;;18.08;16.50;;;;;;;31.86;55.84;101193.69;5140351;27;43557;-28
2021/04/17 02:32:16;;;;;;;17.50;15.65;;;;;;;31.79;55.91;101182.06;5078123;27;1514427;-28
2021/04/17 02:34:59;;;;;;;21.13;15.57;;;;;;;31.94;54.79;101189.91;5094868;27;44485;-28
2021/04/17 02:37:29;;;;;;;18.08;15.40;;;;;;;31.93;55.79;101183.66;5083958;27;70170;-28
2021/04/17 02:42:36;;;;;;;15.98;14.38;;;;;;;31.97;55.86;101176.72;5050258;28;43629;-28
2021/04/17 02:45:21;;;;;;;16.58;15.00;;;;;;;31.98;55.62;101181.13;5097268;27;44485;-27
2021/04/17 02:48:05;;;;;;;16.17;14.35;;;;;;;32.03;54.84;101173.13;5056052;28;44328;-28
2021/04/17 02:50:52;;;;;;;16.23;14.38;;;;;;;32.07;55.12;101173.53;5112531;27;45130;-28
2021/04/17 02:53:41;;;;;;;15.73;14.13;;;;;;;32.10;55.66;101169.56;5097027;27;44577;-29
2021/04/17 02:56:27;;;;;;;17.35;14.40;;;;;;;32.12;55.76;101170.13;5095396;27;43633;-28
2021/04/17 02:59:10;;;;;;;18.00;14.60;;;;;;;32.11;55.70;101163.88;5095436;27;43713;-28
2021/04/17 03:01:55;;;;;;;14.07;12.90;;;;;;;32.16;55.86;101163.22;5097929;27;44801;-31
2021/04/17 03:04:38;;;;;;;14.95;13.38;;;;;;;32.22;55.54;101162.34;5088968;27;1505359;-27
2021/04/17 03:07:22;;;;;;;18.60;13.70;;;;;;;32.22;55.48;101170.47;5108178;27;43274;-29
2021/04/17 03:10:07;;;;;;;15.20;13.25;;;;;;;32.25;55.57;101159.19;5092329;27;44996;-28
2021/04/17 03:12:54;;;;;;;15.25;13.15;;;;;;;32.29;55.55;101165.84;5120507;27;43687;-28
2021/04/17 03:15:41;;;;;;;14.52;13.20;;;;;;;32.36;55.48;101161.16;5097546;27;43561;-28
2021/04/17 03:18:26;;;;;;;14.45;13.35;;;;;;;32.35;55.37;101158.69;5096672;27;43955;-28
2021/04/17 03:21:09;;;;;;;16.95;13.05;;;;;;;32.36;55.50;101158.44;5078293;27;43720;-29
2021/04/17 03:23:52;;;;;;;15.88;13.40;;;;;;;32.39;55.20;101155.28;5109896;27;43642;-28
2021/04/17 03:26:38;;;;;;;14.15;12.65;;;;;;;32.40;55.31;101150.66;5087333;27;44491;-28
2021/04/17 03:29:23;;;;;;;15.18;13.48;;;;;;;32.47;54.79;101146.88;5039930;28;44005;-28
2021/04/17 03:32:09;;;;;;;14.38;12.98;;;;;;;32.56;55.25;101154.72;5064324;28;44503;-28
2021/04/17 03:34:54;;;;;;;15.88;14.27;;;;;;;32.50;54.09;101151.03;5061967;27;44672;-27
2021/04/17 03:37:41;;;;;;;13.57;12.40;;;;;;;32.52;55.20;101156.25;5106555;27;43975;-28
2021/04/17 03:40:12;;;;;;;14.18;12.77;;;;;;;32.56;55.04;101165.59;5079988;27;70242;-28
2021/04/17 03:42:57;;;;;;;16.40;13.50;;;;;;;32.52;54.76;101161.66;5103049;27;44505;-28
2021/04/17 03:45:42;;;;;;;12.68;11.48;;;;;;;32.52;54.87;101159.78;5076555;27;44404;-28
2021/04/17 03:48:30;;;;;;;17.60;14.25;;;;;;;32.58;54.75;101158.06;5114756;27;43786;-28
2021/04/17 03:51:15;;;;;;;15.23;12.68;;;;;;;32.60;54.98;101155.94;5102153;27;43633;-29
2021/04/17 03:54:01;;;;;;;13.98;12.65;;;;;;;32.60;54.53;101156.78;5053676;28;43659;-29
2021/04/17 03:56:47;;;;;;;14.52;12.82;;;;;;;32.60;55.00;101155.94;5110836;27;43936;-29
2021/04/17 03:59:32;;;;;;;12.85;11.85;;;;;;;32.65;54.62;101145.22;5057853;28;44520;-28
2021/04/17 04:02:18;;;;;;;12.80;11.57;;;;;;;32.66;54.78;101155.03;5091357;27;44647;-28
2021/04/17 04:04:48;;;;;;;13.18;12.00;;;;;;;32.66;54.67;101150.44;5092866;27;69821;-27
2021/04/17 04:07:34;;;;;;;18.55;13.27;;;;;;;32.72;53.80;101138.66;5017362;28;44439;-28
2021/04/17 04:10:20;;;;;;;14.02;12.57;;;;;;;32.70;54.57;101139.94;5069186;28;44542;-28
2021/04/17 04:13:04;;;;;;;14.25;12.90;;;;;;;32.76;54.36;101133.59;5096556;27;43633;-27
2021/04/17 04:15:49;;;;;;;14.18;12.90;;;;;;;32.75;54.06;101125.69;5024413;28;44789;-28
2021/04/17 04:18:36;;;;;;;13.45;12.25;;;;;;;32.83;54.33;101123.47;5053049;28;43376;-27
2021/04/17 04:21:23;;;;;;;17.88;15.15;;;;;;;32.90;53.57;101118.81;5079623;27;43777;-28
2021/04/17 04:24:07;;;;;;;16.45;14.82;;;;;;;32.94;52.69;101120.00;5105594;27;43707;-27
2021/04/17 04:26:51;;;;;;;15.15;13.68;;;;;;;32.90;53.38;101113.38;5065346;27;43613;-28
2021/04/17 04:29:34;;;;;;;17.88;13.48;;;;;;;32.94;53.67;101109.13;5092668;27;1508884;-29
2021/04/17 04:35:03;;;;;;;21.92;14.75;;;;;;;33.06;53.15;101100.22;5106114;27;44705;-35
2021/04/17 04:39:56;;;;;;;24.50;13.70;;;;;;;32.59;53.39;101099.94;5106560;27;45042;-29
2021/04/17 04:42:38;;;;;;;19.17;12.90;;;;;;;32.35;53.05;101083.50;5073749;27;1503554;-29
2021/04/17 04:45:24;;;;;;;14.05;12.73;;;;;;;32.19;51.96;101084.06;5097001;27;43614;-28
2021/04/17 04:48:09;;;;;;;19.38;11.77;;;;;;;32.09;51.54;101067.47;5112038;27;43629;-28
2021/04/17 04:50:39;;;;;;;12.13;11.13;;;;;;;31.95;50.94;101073.00;5096525;27;68784;-28
2021/04/17 04:53:27;;;;;;;12.15;11.00;;;;;;;31.87;49.80;101070.56;5096594;27;44941;-29
2021/04/17 04:56:12;;;;;;;12.45;11.15;;;;;;;31.77;49.36;101062.13;5123944;27;42948;-29
2021/04/17 04:58:57;;;;;;;12.02;10.90;;;;;;;31.63;48.63;101063.28;5088720;27;44471;-29
2021/04/17 05:01:40;;;;;;;14.70;10.68;;;;;;;31.51;48.08;101066.72;5097565;27;1495754;-29
2021/04/17 05:04:25;;;;;;;12.05;10.93;;;;;;;31.50;48.71;101064.19;5073449;27;44436;-29
2021/04/17 05:07:07;;;;;;;12.73;10.65;;;;;;;31.49;47.80;101063.38;5081617;27;1491747;-30
2021/04/17 05:09:55;;;;;;;18.50;10.38;;;;;;;31.41;47.56;101052.81;5098846;27;44199;-29
2021/04/17 05:12:39;;;;;;;16.25;10.10;;;;;;;31.33;47.43;101044.91;5107978;27;43763;-29
2021/04/17 05:15:10;;;;;;;19.25;11.82;;;;;;;31.37;47.94;101032.59;5092008;27;70296;-29
2021/04/17 05:17:54;;;;;;;11.55;9.45;;;;;;;31.40;47.33;101037.59;5036068;28;43352;-29
2021/04/17 05:20:37;;;;;;;10.15;8.90;;;;;;;31.35;46.67;101024.66;5074226;27;43690;-30
2021/04/17 05:23:20;;;;;;;12.60;8.05;;;;;;;31.39;46.29;101015.06;5079901;27;44518;-29
2021/04/17 05:26:11;;;;;;;22.33;7.32;;;;;;;31.31;46.01;101011.75;5056130;28;43624;-29
2021/04/17 05:28:58;;;;;;;12.52;6.38;;;;;;;31.29;45.14;101016.59;5066015;28;44386;-29
2021/04/17 05:31:46;;;;;;;21.27;5.82;;;;;;;31.30;45.44;101008.22;5119506;27;43694;-29
2021/04/17 05:34:31;;;;;;;15.15;6.32;;;;;;;31.31;45.43;101000.91;5057981;28;44922;-28
2021/04/17 05:37:14;;;;;;;26.08;6.10;;;;;;;31.33;45.49;100994.22;5098809;27;43751;-29
2021/04/17 05:39:58;;;;;;;28.02;6.47;;;;;;;31.32;45.55;100981.75;5058279;27;43638;-27
2021/04/17 05:42:40;;;;;;;17.40;5.45;;;;;;;31.27;45.99;100980.75;5056315;28;44415;-28
2021/04/17 05:45:10;;;;;;;19.85;5.28;;;;;;;31.36;45.67;100991.09;5064693;27;67493;-29
2021/04/17 05:47:55;;;;;;;16.02;5.40;;;;;;;31.33;46.14;100980.69;5103744;27;44503;-28
2021/04/17 05:50:25;;;;;;;15.20;5.93;;;;;;;31.33;45.41;100977.97;5071615;27;68897;-28
2021/04/17 05:53:10;;;;;;;8.05;4.93;;;;;;;31.28;45.02;100968.84;5073447;28;43545;-28
2021/04/17 05:55:40;;;;;;;11.52;4.50;;;;;;;31.30;44.53;100964.03;5065891;28;69260;-29
2021/04/17 05:58:30;;;;;;;24.45;5.63;;;;;;;31.29;45.87;100959.69;5015184;28;43713;-28
2021/04/17 06:01:15;;;;;;;14.07;5.90;;;;;;;31.30;45.39;100955.91;5098915;27;45205;-29
2021/04/17 06:04:04;;;;;;;8.18;5.13;;;;;;;31.31;45.57;100952.13;5108031;27;43778;-28
2021/04/17 06:06:46;;;;;;;10.00;4.90;;;;;;;31.27;44.76;100943.63;5081520;27;1496960;-29
2021/04/17 06:09:16;;;;;;;5.57;4.38;;;;;;;31.33;44.22;100933.78;5119733;27;69842;-29
2021/04/17 06:12:49;;;;;;;5.50;4.40;;;;;;;31.29;44.13;100927.97;5063151;28;43764;-29
2021/04/17 06:15:33;;;;;;;6.03;3.60;;;;;;;31.25;43.98;100932.16;5109116;27;44542;-29
2021/04/17 06:18:19;;;;;;;4.35;3.95;;;;;;;31.24;44.11;100918.84;5102616;27;43659;-29
2021/04/17 06:20:49;;;;;;;7.07;3.65;;;;;;;31.22;43.74;100920.94;5090355;27;69816;-28
2021/04/17 06:23:34;;;;;;;3.75;3.45;;;;;;;31.22;43.57;100915.53;5092477;27;44563;-29
2021/04/17 06:26:20;;;;;;;4.13;3.40;;;;;;;31.20;43.94;100917.63;5111115;27;43536;-29
2021/04/17 06:29:03;;;;;;;3.67;3.33;;;;;;;31.20;43.83;100914.91;5114660;27;43702;-29
2021/04/17 06:31:47;;;;;;;4.00;3.40;;;;;;;31.14;43.16;100898.50;5062490;28;43681;-28
2021/04/17 06:34:29;;;;;;;3.88;3.58;;;;;;;31.15;43.18;100894.75;5105223;27;44522;-29
2021/04/17 06:37:14;;;;;;;7.22;3.08;;;;;;;31.13;43.11;100891.41;5096578;27;43937;-29
2021/04/17 06:39:58;;;;;;;7.25;3.30;;;;;;;31.11;43.23;100882.69;5083214;27;44254;-29
2021/04/17 06:42:48;;;;;;;4.55;3.03;;;;;;;31.15;42.49;100866.81;5047452;28;44528;-29
2021/04/17 06:45:34;;;;;;;4.40;4.20;;;;;;;31.20;44.46;100868.84;5057123;28;44462;-29
2021/04/17 06:48:20;;;;;;;5.55;4.60;;;;;;;31.28;44.04;100865.84;5046545;28;44448;-30
2021/04/17 06:51:15;;;;;;;4.80;4.50;;;;;;;31.20;43.95;100860.72;5047174;27;43669;-28
2021/04/17 06:53:58;;;;;;;7.60;3.85;;;;;;;31.23;43.92;100854.84;5091923;27;43703;-28
2021/04/17 06:56:43;;;;;;;6.00;3.47;;;;;;;31.22;43.87;100851.31;5090869;27;1490540;-29
2021/04/17 06:59:32;;;;;;;3.53;3.33;;;;;;;31.28;42.95;100841.47;5078273;27;43703;-29
2021/04/17 07:02:16;;;;;;;10.65;3.25;;;;;;;31.20;43.13;100836.34;5052749;27;44912;-29
2021/04/17 07:04:52;;;;;;;11.70;3.30;;;;;;;31.25;43.15;100833.78;5045811;28;67689;-29
2021/04/17 07:07:35;;;;;;;7.53;3.38;;;;;;;31.26;43.04;100819.16;4999714;27;44449;-28
2021/04/17 07:10:18;;;;;;;6.28;3.10;;;;;;;31.30;43.27;100809.56;5055742;28;43789;-29
2021/04/17 07:12:48;;;;;;;7.15;2.97;;;;;;;31.19;42.32;100791.34;5040050;28;72060;-29
2021/04/17 07:15:40;;;;;;;3.22;3.03;;;;;;;31.25;42.38;100802.09;5060129;28;43617;-29
2021/04/17 07:18:26;;;;;;;8.32;4.20;;;;;;;31.31;43.44;100790.34;5053406;27;44514;-30
2021/04/17 07:21:14;;;;;;;3.97;3.58;;;;;;;31.36;42.96;100787.00;5059909;28;43697;-33
2021/04/17 07:23:57;;;;;;;3.95;3.65;;;;;;;31.34;42.80;100784.50;5104454;27;44467;-29
2021/04/17 07:26:43;;;;;;;3.55;3.35;;;;;;;31.40;42.19;100777.38;5072839;27;45054;-29
2021/04/17 07:29:41;;;;;;;3.55;3.35;;;;;;;31.39;42.06;100771.09;5086979;27;43669;-32
2021/04/17 07:32:22;;;;;;;3.00;2.70;;;;;;;31.43;41.60;100766.06;5049109;28;43687;-35
2021/04/17 07:35:05;;;;;;;3.40;2.75;;;;;;;31.42;41.64;100750.03;5088649;27;1500146;-31
2021/04/17 07:39:42;;;;;;;4.07;2.83;;;;;;;31.46;41.44;100749.34;5101533;27;45165;-31
2021/04/17 07:42:36;;;;;;;4.80;2.63;;;;;;;31.40;40.74;100734.00;5087151;27;44310;-30
2021/04/17 07:45:39;;;;;;;7.05;3.58;;;;;;;31.63;42.35;100754.97;5058418;27;43710;-29
2021/04/17 07:48:29;;;;;;;12.68;6.20;;;;;;;31.78;45.28;100736.41;5090570;27;43657;-28
2021/04/17 07:51:15;;;;;;;12.57;9.48;;;;;;;32.06;47.26;100737.69;5086337;27;43817;-28
2021/04/17 07:54:13;;;;;;;31.10;12.48;;;;;;;32.27;49.81;100734.44;5091639;27;43522;-36
2021/04/17 07:57:13;;;;;;;25.92;16.02;;;;;;;32.43;51.30;100724.81;5104941;27;43997;-37
2021/04/17 08:00:03;;;;;;;24.48;14.02;;;;;;;32.75;50.64;100740.78;5107528;27;44351;-39
2021/04/17 08:02:55;;;;;;;21.52;15.10;;;;;;;32.69;50.68;100718.09;5100851;27;44027;-37
2021/04/17 08:05:27;;;;;;;19.30;13.80;;;;;;;32.94;51.69;100734.16;5099888;27;69739;-39
2021/04/17 08:07:59;;;;;;;20.92;14.82;;;;;;;33.01;51.66;100738.66;5106984;27;66716;-37
2021/04/17 08:10:31;;;;;;;27.25;17.42;;;;;;;33.16;51.86;100733.56;5112665;27;69292;-35
2021/04/17 08:13:07;;;;;;;35.75;16.77;;;;;;;33.24;52.08;100733.19;5109089;27;65468;-37
2021/04/17 08:15:44;;;;;;;28.45;16.13;;;;;;;33.30;52.00;100737.66;5111059;27;70177;-34
2021/04/17 08:18:19;;;;;;;22.25;19.02;;;;;;;33.32;50.90;100719.22;5111104;27;65506;-34
2021/04/17 08:20:54;;;;;;;19.55;17.50;;;;;;;33.45;51.04;100720.00;5102012;27;69217;-33
2021/04/17 08:23:27;;;;;;;18.10;16.50;;;;;;;33.43;51.36;100716.69;5105221;27;65896;-35
2021/04/17 08:25:58;;;;;;;20.92;16.48;;;;;;;33.46;51.47;100710.78;5114197;27;69234;-35
2021/04/17 08:28:28;;;;;;;17.52;15.70;;;;;;;33.47;51.93;100699.66;5096654;27;66740;-35
2021/04/17 08:31:24;;;;;;;30.33;17.52;;;;;;;33.51;52.38;100700.81;5099172;27;69872;-35
2021/04/17 08:34:14;;;;;;;20.20;17.63;;;;;;;33.54;52.53;100704.97;5099688;27;65293;-35
2021/04/17 08:36:49;;;;;;;23.42;17.58;;;;;;;33.62;52.05;100712.75;5094566;27;69883;-34
2021/04/17 08:39:34;;;;;;;20.50;18.00;;;;;;;33.65;51.58;100712.25;5093246;27;66546;-35
2021/04/17 08:42:15;;;;;;;18.92;15.50;;;;;;;33.62;52.31;100707.31;5091209;27;69980;-35
2021/04/17 08:44:48;;;;;;;16.05;14.75;;;;;;;33.64;52.68;100707.91;5112974;27;65420;-35
2021/04/17 08:47:48;;;;;;;20.02;16.45;;;;;;;33.67;52.09;100714.75;5107841;27;69909;-34
2021/04/17 08:50:23;;;;;;;20.33;15.57;;;;;;;33.72;52.16;100706.69;5092217;27;65745;-34
2021/04/17 08:53:15;;;;;;;20.33;15.70;;;;;;;33.72;51.90;100695.81;5100142;27;70049;-35
2021/04/17 08:55:49;;;;;;;21.42;16.33;;;;;;;33.77;51.70;100702.16;5099486;27;65274;-35
2021/04/17 08:58:26;;;;;;;21.08;18.58;;;;;;;33.66;51.08;100670.41;5103743;27;70177;-35
2021/04/17 09:00:55;;;;;;;20.73;17.27;;;;;;;33.85;51.84;100708.25;5091802;27;65341;-35
2021/04/17 09:03:51;;;;;;;23.58;17.48;;;;;;;33.74;52.54;100707.25;5101198;27;69024;-35
2021/04/17 09:06:21;;;;;;;24.10;16.25;;;;;;;33.84;53.03;100720.22;5114348;27;66679;-34
2021/04/17 09:09:15;;;;;;;21.40;16.23;;;;;;;33.81;53.84;100733.25;5111428;27;69232;-34
2021/04/17 09:11:49;;;;;;;26.67;16.70;;;;;;;33.84;54.05;100742.00;5088761;27;65911;-35
2021/04/17 09:14:32;;;;;;;17.13;14.65;;;;;;;33.75;54.46;100739.66;5086091;27;69718;-35
2021/04/17 09:17:26;;;;;;;25.42;18.77;;;;;;;33.75;53.93;100745.09;5091475;27;66156;-35
2021/04/17 09:19:58;;;;;;;21.23;15.55;;;;;;;33.74;53.93;100751.63;5088456;27;70176;-35
2021/04/17 09:22:34;;;;;;;19.50;15.25;;;;;;;33.72;53.46;100742.06;5099266;27;65494;-35
2021/04/17 09:25:13;;;;;;;23.30;15.00;;;;;;;33.76;53.44;100740.47;5093367;27;69201;-35
2021/04/17 09:27:55;;;;;;;26.57;15.20;;;;;;;33.90;53.44;100754.63;5091955;27;66289;-35
2021/04/17 09:30:24;;;;;;;14.80;13.25;;;;;;;33.96;52.07;100745.47;5080527;27;69951;-35
2021/04/17 09:32:58;;;;;;;17.15;13.38;;;;;;;33.96;51.40;100745.47;5081557;27;65002;-35
2021/04/17 09:35:37;;;;;;;16.30;12.57;;;;;;;33.91;50.62;100724.47;5099945;27;69240;-34
2021/04/17 09:38:16;;;;;;;19.70;12.68;;;;;;;34.06;50.84;100751.13;5076737;28;65332;-33
2021/04/17 09:40:49;;;;;;;15.82;12.88;;;;;;;34.15;51.17;100754.28;5095059;27;69691;-34
2021/04/17 09:43:38;;;;;;;18.35;12.35;;;;;;;34.09;51.61;100756.09;5079834;28;65909;-34
2021/04/17 09:46:18;;;;;;;14.27;11.93;;;;;;;33.95;51.36;100735.66;5097120;27;69966;-34
2021/04/17 09:48:47;;;;;;;13.15;11.63;;;;;;;34.15;51.25;100748.84;5089853;27;66306;-35
2021/04/17 09:51:20;;;;;;;16.98;12.05;;;;;;;34.18;51.24;100743.72;5077967;27;70557;-34
2021/04/17 09:53:51;;;;;;;12.15;10.98;;;;;;;34.14;50.40;100726.25;5086479;27;65975;-34
2021/04/17 09:56:29;;;;;;;11.15;9.73;;;;;;;34.13;50.15;100732.75;5099135;27;68888;-35
2021/04/17 09:59:05;;;;;;;11.05;10.00;;;;;;;34.16;50.02;100735.00;5089125;27;65563;-34
2021/04/17 10:02:12;;;;;;;10.55;9.40;;;;;;;34.08;49.89;100745.47;5080261;27;69954;-34
2021/04/17 10:04:50;;;;;;;9.35;8.75;;;;;;;34.13;49.36;100745.53;5081137;27;65900;-34
2021/04/17 10:07:20;;;;;;;23.63;10.18;;;;;;;34.09;49.54;100747.91;5077903;27;69844;-35
2021/04/17 10:10:06;;;;;;;11.98;10.30;;;;;;;34.09;49.36;100753.38;5099832;27;65854;-35
2021/04/17 10:12:53;;;;;;;12.63;10.88;;;;;;;33.97;49.38;100741.69;5073264;27;69349;-34
2021/04/17 10:15:39;;;;;;;11.93;10.77;;;;;;;34.12;49.26;100776.56;5084587;27;66353;-35
2021/04/17 10:18:09;;;;;;;12.00;10.80;;;;;;;34.03;50.07;100789.69;5089992;27;69961;-34
2021/04/17 10:20:42;;;;;;;21.08;12.00;;;;;;;33.78;50.70;100779.16;5089767;27;65267;-36
2021/04/17 10:23:12;;;;;;;14.15;12.68;;;;;;;33.59;51.15;100789.41;5083895;27;69326;-34
2021/04/17 10:25:46;;;;;;;19.15;13.38;;;;;;;33.50;51.61;100790.81;5089234;27;64790;-35
2021/04/17 10:28:22;;;;;;;25.42;13.35;;;;;;;33.23;51.76;100771.47;5090001;27;69059;-35
2021/04/17 10:30:54;;;;;;;13.32;12.05;;;;;;;33.29;51.58;100779.53;5090836;27;65744;-34
2021/04/17 10:33:25;;;;;;;16.45;12.35;;;;;;;33.25;51.58;100778.34;5084679;27;70046;-35
2021/04/17 10:35:58;;;;;;;15.48;13.02;;;;;;;33.19;51.76;100771.13;5084855;27;65262;-34
2021/04/17 10:38:30;;;;;;;18.25;14.20;;;;;;;33.13;51.73;100785.69;5084306;27;69816;-34
2021/04/17 10:41:05;;;;;;;15.40;13.98;;;;;;;33.00;51.91;100785.94;5086069;27;66692;-34
2021/04/17 10:43:35;;;;;;;21.63;14.60;;;;;;;33.03;52.08;100808.00;5089366;27;70299;-34
2021/04/17 10:46:06;;;;;;;27.00;17.70;;;;;;;33.02;52.00;100800.13;5097157;27;65994;-36
2021/04/17 10:48:46;;;;;;;24.45;17.98;;;;;;;33.01;52.13;100806.59;5079220;27;69799;-35
2021/04/17 10:51:18;;;;;;;20.85;18.35;;;;;;;33.02;51.90;100810.97;5093439;27;65557;-33
2021/04/17 10:53:49;;;;;;;25.77;17.97;;;;;;;32.98;51.86;100816.00;5083725;27;70143;-34
2021/04/17 10:56:21;;;;;;;19.88;17.77;;;;;;;32.99;52.41;100838.56;5092487;27;66600;-34
2021/04/17 10:59:03;;;;;;;24.02;18.13;;;;;;;32.87;52.94;100831.25;5069011;27;69015;-34
2021/04/17 11:01:37;;;;;;;30.33;19.30;;;;;;;32.93;53.26;100848.50;5077389;27;66257;-35
2021/04/17 11:04:08;;;;;;;33.67;20.20;;;;;;;32.84;53.57;100848.00;5071904;27;69884;-35
2021/04/17 11:06:40;;;;;;;27.52;20.17;;;;;;;32.82;53.52;100862.88;5084759;27;65363;-35
2021/04/17 11:09:12;;;;;;;23.92;20.67;;;;;;;32.62;53.60;100855.06;5086064;27;69251;-35
2021/04/17 11:11:51;;;;;;;25.25;20.42;;;;;;;32.56;53.89;100872.28;5083518;27;66062;-35
2021/04/17 11:14:23;;;;;;;31.10;20.42;;;;;;;32.65;53.51;100887.19;5085170;27;69837;-35
2021/04/17 11:16:53;;;;;;;;;;;;;;;32.64;54.00;100890.97;5080752;27;67047;-34
2021/04/17 11:19:29;;;;;;;34.07;20.97;;;;;;;32.51;54.02;100880.31;5082381;27;70066;-35
2021/04/17 11:22:11;;;;;;;23.98;19.65;;;;;;;32.57;54.11;100901.09;5086110;27;66009;-34
2021/04/17 11:24:56;;;;;;;25.25;17.35;;;;;;;32.58;54.48;100913.63;5077421;27;70333;-35
2021/04/17 11:27:27;;;;;;;19.45;17.23;;;;;;;32.54;54.20;100896.13;5075009;27;65341;-36
2021/04/17 11:29:57;;;;;;;28.15;18.30;;;;;;;32.59;54.64;100923.44;5077918;27;69521;-36
2021/04/17 11:32:27;;;;;;;24.33;19.63;;;;;;;32.54;54.52;100917.84;5079055;27;66022;-34
2021/04/17 11:34:57;;;;;;;25.27;18.70;;;;;;;32.49;54.65;100916.69;5083584;27;69884;-35
2021/04/17 11:37:29;;;;;;;25.75;17.58;;;;;;;32.46;55.08;100917.13;5083660;27;66516;-35
2021/04/17 11:39:59;;;;;;;;;;;;;;;32.39;55.16;100932.66;5083969;27;69924;-35
2021/04/17 11:42:30;;;;;;;30.08;22.08;;;;;;;32.49;55.07;100943.81;5083178;27;65935;-35
2021/04/17 11:44:59;;;;;;;28.50;21.48;;;;;;;32.44;55.02;100950.97;5080208;27;69787;-34
2021/04/17 11:47:29;;;;;;;27.67;21.33;;;;;;;32.40;55.33;100961.47;5090294;27;67110;-34
2021/04/17 11:49:59;;;;;;;35.30;22.63;;;;;;;32.43;55.46;100971.88;5075409;28;69653;-34
2021/04/17 11:52:29;;;;;;;35.05;22.15;;;;;;;32.36;55.97;100981.97;5064503;27;66013;-34
2021/04/17 11:55:00;;;;;;;31.55;23.23;;;;;;;32.39;55.90;100986.13;5090248;27;69745;-34
2021/04/17 11:57:32;;;;;;;34.60;23.67;;;;;;;32.34;56.41;100992.22;5079308;27;66713;-34
2021/04/17 12:00:03;;;;;;;35.00;22.85;;;;;;;32.36;56.69;100992.84;5066802;27;69618;-34
2021/04/17 12:02:32;;;;;;;25.75;19.33;;;;;;;32.35;57.36;100996.63;5074852;27;66154;-35
2021/04/17 12:05:03;;;;;;;17.48;15.88;;;;;;;32.23;56.70;101003.84;5070256;27;70404;-35
2021/04/17 12:07:32;;;;;;;15.95;14.48;;;;;;;32.10;56.18;101004.00;5090558;27;66230;-35
2021/04/17 12:10:08;;;;;;;12.63;11.70;;;;;;;31.98;55.83;101017.47;5070852;27;70967;-33
2021/04/17 12:12:38;;;;;;;11.48;10.50;;;;;;;31.92;54.98;101024.63;5074807;27;65332;-35
2021/04/17 12:15:11;;;;;;;10.05;8.35;;;;;;;31.87;54.46;101048.03;5069272;28;70298;-34
2021/04/17 12:17:41;;;;;;;8.23;7.60;;;;;;;31.77;53.98;101064.81;5068203;27;66151;-34
2021/04/17 12:20:12;;;;;;;9.00;8.30;;;;;;;31.70;54.42;101072.19;5070133;27;70028;-35
2021/04/17 12:22:42;;;;;;;9.05;8.25;;;;;;;31.65;54.66;101064.72;5074352;27;65916;-34
2021/04/17 12:25:12;;;;;;;9.98;7.45;;;;;;;31.59;54.34;101055.59;5075182;27;69197;-35
2021/04/17 12:27:41;;;;;;;10.77;6.60;;;;;;;31.52;53.71;101052.09;5072082;27;66451;-34
2021/04/17 12:30:11;;;;;;;8.45;7.22;;;;;;;31.47;53.59;101059.22;5071865;27;70433;-35